sensor_id;sensor_type;location;lat;lon;timestamp;pressure;altitude;pressure_sealevel;temperature;humidity
62864;BME280;48954;59.950;11.014;2023-02-02T00:00:38;98895.10;;;-9.88;78.75
62864;BME280;48954;59.950;11.014;2023-02-02T00:03:24;98898.94;;;-9.92;78.88
62864;BME280;48954;59.950;11.014;2023-02-02T00:05:52;98898.86;;;-9.94;78.79
62864;BME280;48954;59.950;11.014;2023-02-02T00:08:19;98903.10;;;-9.95;79.03
62864;BME280;48954;59.950;11.014;2023-02-02T00:10:46;98902.09;;;-9.97;78.74
62864;BME280;48954;59.950;11.014;2023-02-02T00:13:13;98910.55;;;-9.98;78.70
62864;BME280;48954;59.950;11.014;2023-02-02T00:15:39;98914.48;;;-9.99;78.96
62864;BME280;48954;59.950;11.014;2023-02-02T00:18:05;98920.34;;;-10.00;78.66
62864;BME280;48954;59.950;11.014;2023-02-02T00:20:37;98921.19;;;-10.03;78.85
62864;BME280;48954;59.950;11.014;2023-02-02T00:23:03;98925.10;;;-10.05;78.63
62864;BME280;48954;59.950;11.014;2023-02-02T00:25:32;98933.80;;;-10.10;78.57
62864;BME280;48954;59.950;11.014;2023-02-02T00:27:58;98940.67;;;-10.13;78.49
62864;BME280;48954;59.950;11.014;2023-02-02T00:30:24;98945.59;;;-10.17;78.48
62864;BME280;48954;59.950;11.014;2023-02-02T00:32:51;98947.58;;;-10.21;78.75
62864;BME280;48954;59.950;11.014;2023-02-02T00:35:18;98953.43;;;-10.23;78.79
62864;BME280;48954;59.950;11.014;2023-02-02T00:37:45;98958.20;;;-10.24;78.75
62864;BME280;48954;59.950;11.014;2023-02-02T00:40:11;98961.23;;;-10.25;78.82
62864;BME280;48954;59.950;11.014;2023-02-02T00:42:37;98962.71;;;-10.27;78.82
62864;BME280;48954;59.950;11.014;2023-02-02T00:45:03;98970.05;;;-10.29;78.56
62864;BME280;48954;59.950;11.014;2023-02-02T00:47:29;98971.71;;;-10.32;78.41
62864;BME280;48954;59.950;11.014;2023-02-02T00:49:56;98974.67;;;-10.35;78.47
62864;BME280;48954;59.950;11.014;2023-02-02T00:52:22;98979.01;;;-10.38;78.53
62864;BME280;48954;59.950;11.014;2023-02-02T00:54:48;98984.66;;;-10.41;78.30
62864;BME280;48954;59.950;11.014;2023-02-02T00:57:15;98985.25;;;-10.43;78.45
62864;BME280;48954;59.950;11.014;2023-02-02T00:59:41;98988.39;;;-10.47;78.41
62864;BME280;48954;59.950;11.014;2023-02-02T01:02:09;98989.89;;;-10.48;78.28
62864;BME280;48954;59.950;11.014;2023-02-02T01:04:36;98995.98;;;-10.50;78.21
62864;BME280;48954;59.950;11.014;2023-02-02T01:07:02;99000.80;;;-10.52;78.28
62864;BME280;48954;59.950;11.014;2023-02-02T01:09:29;99008.18;;;-10.53;78.63
62864;BME280;48954;59.950;11.014;2023-02-02T01:11:56;99010.07;;;-10.54;78.73
62864;BME280;48954;59.950;11.014;2023-02-02T01:14:22;99009.98;;;-10.56;78.41
62864;BME280;48954;59.950;11.014;2023-02-02T01:16:48;99013.44;;;-10.56;78.67
62864;BME280;48954;59.950;11.014;2023-02-02T01:19:15;99018.52;;;-10.58;78.57
62864;BME280;48954;59.950;11.014;2023-02-02T01:21:41;99022.45;;;-10.60;78.61
62864;BME280;48954;59.950;11.014;2023-02-02T01:24:08;99023.00;;;-10.62;78.31
62864;BME280;48954;59.950;11.014;2023-02-02T01:26:34;99028.15;;;-10.62;78.57
62864;BME280;48954;59.950;11.014;2023-02-02T01:29:01;99026.19;;;-10.62;78.83
62864;BME280;48954;59.950;11.014;2023-02-02T01:31:27;99029.57;;;-10.63;78.29
62864;BME280;48954;59.950;11.014;2023-02-02T01:33:53;99038.00;;;-10.65;78.38
62864;BME280;48954;59.950;11.014;2023-02-02T01:36:21;99038.25;;;-10.66;78.54
62864;BME280;48954;59.950;11.014;2023-02-02T01:38:48;99041.71;;;-10.68;78.62
62864;BME280;48954;59.950;11.014;2023-02-02T01:41:18;99044.91;;;-10.70;78.64
62864;BME280;48954;59.950;11.014;2023-02-02T01:46:12;99057.42;;;-10.74;78.40
62864;BME280;48954;59.950;11.014;2023-02-02T01:48:41;99057.59;;;-10.76;78.36
62864;BME280;48954;59.950;11.014;2023-02-02T01:51:14;99062.04;;;-10.78;78.47
62864;BME280;48954;59.950;11.014;2023-02-02T01:53:42;99063.02;;;-10.80;78.47
62864;BME280;48954;59.950;11.014;2023-02-02T01:56:14;99070.42;;;-10.81;78.51
62864;BME280;48954;59.950;11.014;2023-02-02T01:58:43;99070.83;;;-10.83;78.28
62864;BME280;48954;59.950;11.014;2023-02-02T02:01:10;99072.61;;;-10.87;78.32
62864;BME280;48954;59.950;11.014;2023-02-02T02:03:41;99078.02;;;-10.91;78.37
62864;BME280;48954;59.950;11.014;2023-02-02T02:06:14;99082.55;;;-10.95;78.46
62864;BME280;48954;59.950;11.014;2023-02-02T02:09:02;99092.38;;;-10.95;78.64
62864;BME280;48954;59.950;11.014;2023-02-02T02:11:30;99096.46;;;-10.98;78.67
62864;BME280;48954;59.950;11.014;2023-02-02T02:13:59;99105.94;;;-11.02;78.05
62864;BME280;48954;59.950;11.014;2023-02-02T02:22:13;99126.63;;;-11.13;78.51
62864;BME280;48954;59.950;11.014;2023-02-02T02:25:02;99127.11;;;-11.13;78.64
62864;BME280;48954;59.950;11.014;2023-02-02T02:27:43;99130.46;;;-11.12;78.73
62864;BME280;48954;59.950;11.014;2023-02-02T02:33:19;99136.30;;;-11.12;78.87
62864;BME280;48954;59.950;11.014;2023-02-02T02:41:42;99144.14;;;-11.16;78.54
62864;BME280;48954;59.950;11.014;2023-02-02T02:44:11;99144.39;;;-11.18;78.59
62864;BME280;48954;59.950;11.014;2023-02-02T02:46:41;99147.07;;;-11.16;78.82
62864;BME280;48954;59.950;11.014;2023-02-02T02:49:09;99150.95;;;-11.16;79.09
62864;BME280;48954;59.950;11.014;2023-02-02T02:51:41;99153.96;;;-11.13;78.97
62864;BME280;48954;59.950;11.014;2023-02-02T02:54:09;99157.13;;;-11.12;78.77
62864;BME280;48954;59.950;11.014;2023-02-02T03:00:03;99159.92;;;-11.15;78.58
62864;BME280;48954;59.950;11.014;2023-02-02T03:08:16;99180.25;;;-11.28;78.59
62864;BME280;48954;59.950;11.014;2023-02-02T03:10:46;99182.79;;;-11.30;78.79
62864;BME280;48954;59.950;11.014;2023-02-02T03:13:14;99190.04;;;-11.31;78.67
62864;BME280;48954;59.950;11.014;2023-02-02T03:15:43;99190.85;;;-11.30;78.97
62864;BME280;48954;59.950;11.014;2023-02-02T03:18:27;99190.36;;;-11.30;78.92
62864;BME280;48954;59.950;11.014;2023-02-02T03:20:55;99188.88;;;-11.30;78.66
62864;BME280;48954;59.950;11.014;2023-02-02T03:23:21;99192.28;;;-11.30;78.96
62864;BME280;48954;59.950;11.014;2023-02-02T03:25:48;99203.43;;;-11.30;78.95
62864;BME280;48954;59.950;11.014;2023-02-02T03:28:16;99202.48;;;-11.30;79.12
62864;BME280;48954;59.950;11.014;2023-02-02T03:30:44;99204.23;;;-11.30;79.16
62864;BME280;48954;59.950;11.014;2023-02-02T03:33:12;99208.36;;;-11.30;78.75
62864;BME280;48954;59.950;11.014;2023-02-02T03:35:40;99212.77;;;-11.32;78.97
62864;BME280;48954;59.950;11.014;2023-02-02T03:38:06;99217.52;;;-11.33;78.96
62864;BME280;48954;59.950;11.014;2023-02-02T03:40:33;99224.41;;;-11.36;78.73
62864;BME280;48954;59.950;11.014;2023-02-02T03:42:59;99224.77;;;-11.37;78.79
62864;BME280;48954;59.950;11.014;2023-02-02T03:45:28;99230.02;;;-11.36;78.95
62864;BME280;48954;59.950;11.014;2023-02-02T03:47:55;99230.74;;;-11.35;78.85
62864;BME280;48954;59.950;11.014;2023-02-02T03:50:22;99229.64;;;-11.35;79.27
62864;BME280;48954;59.950;11.014;2023-02-02T03:52:48;99229.33;;;-11.37;78.92
62864;BME280;48954;59.950;11.014;2023-02-02T03:55:15;99236.25;;;-11.38;78.79
62864;BME280;48954;59.950;11.014;2023-02-02T03:57:41;99238.14;;;-11.39;78.84
62864;BME280;48954;59.950;11.014;2023-02-02T04:00:08;99242.56;;;-11.40;79.01
62864;BME280;48954;59.950;11.014;2023-02-02T04:02:38;99246.52;;;-11.39;78.75
62864;BME280;48954;59.950;11.014;2023-02-02T04:05:05;99247.48;;;-11.38;78.80
62864;BME280;48954;59.950;11.014;2023-02-02T04:07:31;99253.29;;;-11.38;78.97
62864;BME280;48954;59.950;11.014;2023-02-02T04:09:57;99260.12;;;-11.39;79.13
62864;BME280;48954;59.950;11.014;2023-02-02T04:12:24;99269.23;;;-11.42;78.50
62864;BME280;48954;59.950;11.014;2023-02-02T04:14:49;99273.17;;;-11.45;78.66
62864;BME280;48954;59.950;11.014;2023-02-02T04:17:18;99279.63;;;-11.48;78.76
62864;BME280;48954;59.950;11.014;2023-02-02T04:19:44;99281.21;;;-11.51;78.89
62864;BME280;48954;59.950;11.014;2023-02-02T04:22:11;99287.73;;;-11.53;78.66
62864;BME280;48954;59.950;11.014;2023-02-02T04:24:37;99287.79;;;-11.56;78.76
62864;BME280;48954;59.950;11.014;2023-02-02T04:27:03;99298.11;;;-11.57;78.54
62864;BME280;48954;59.950;11.014;2023-02-02T04:29:29;99298.36;;;-11.58;79.08
62864;BME280;48954;59.950;11.014;2023-02-02T04:31:55;99304.42;;;-11.57;78.83
62864;BME280;48954;59.950;11.014;2023-02-02T04:34:21;99309.17;;;-11.56;79.13
62864;BME280;48954;59.950;11.014;2023-02-02T04:36:47;99313.64;;;-11.55;78.98
62864;BME280;48954;59.950;11.014;2023-02-02T04:39:14;99324.95;;;-11.55;78.78
62864;BME280;48954;59.950;11.014;2023-02-02T04:41:40;99332.32;;;-11.58;78.94
62864;BME280;48954;59.950;11.014;2023-02-02T04:44:12;99336.02;;;-11.60;78.62
62864;BME280;48954;59.950;11.014;2023-02-02T04:46:39;99342.80;;;-11.61;78.96
62864;BME280;48954;59.950;11.014;2023-02-02T04:49:05;99346.93;;;-11.61;78.83
62864;BME280;48954;59.950;11.014;2023-02-02T04:51:31;99348.73;;;-11.61;78.86
62864;BME280;48954;59.950;11.014;2023-02-02T04:53:57;99352.47;;;-11.60;78.94
62864;BME280;48954;59.950;11.014;2023-02-02T04:56:22;99356.21;;;-11.59;78.71
62864;BME280;48954;59.950;11.014;2023-02-02T04:58:48;99360.73;;;-11.59;78.99
62864;BME280;48954;59.950;11.014;2023-02-02T05:01:18;99361.95;;;-11.57;79.09
62864;BME280;48954;59.950;11.014;2023-02-02T05:03:46;99363.77;;;-11.57;78.75
62864;BME280;48954;59.950;11.014;2023-02-02T05:06:13;99364.52;;;-11.58;78.92
62864;BME280;48954;59.950;11.014;2023-02-02T05:08:39;99369.67;;;-11.58;78.80
62864;BME280;48954;59.950;11.014;2023-02-02T05:11:09;99371.73;;;-11.59;78.99
62864;BME280;48954;59.950;11.014;2023-02-02T05:13:36;99370.52;;;-11.60;78.76
62864;BME280;48954;59.950;11.014;2023-02-02T05:16:03;99376.64;;;-11.61;78.69
62864;BME280;48954;59.950;11.014;2023-02-02T05:18:29;99380.02;;;-11.62;78.66
62864;BME280;48954;59.950;11.014;2023-02-02T05:21:01;99381.48;;;-11.63;78.92
62864;BME280;48954;59.950;11.014;2023-02-02T05:23:29;99386.17;;;-11.62;78.58
62864;BME280;48954;59.950;11.014;2023-02-02T05:25:55;99391.64;;;-11.62;78.88
62864;BME280;48954;59.950;11.014;2023-02-02T05:28:22;99398.81;;;-11.62;79.05
62864;BME280;48954;59.950;11.014;2023-02-02T05:30:49;99403.83;;;-11.61;78.77
62864;BME280;48954;59.950;11.014;2023-02-02T05:33:15;99406.23;;;-11.60;78.93
62864;BME280;48954;59.950;11.014;2023-02-02T05:35:44;99409.46;;;-11.62;79.02
62864;BME280;48954;59.950;11.014;2023-02-02T05:38:10;99412.25;;;-11.63;78.55
62864;BME280;48954;59.950;11.014;2023-02-02T05:40:36;99421.33;;;-11.64;78.61
62864;BME280;48954;59.950;11.014;2023-02-02T05:43:02;99419.92;;;-11.65;78.53
62864;BME280;48954;59.950;11.014;2023-02-02T05:45:28;99425.13;;;-11.67;78.62
62864;BME280;48954;59.950;11.014;2023-02-02T05:47:54;99432.92;;;-11.67;78.78
62864;BME280;48954;59.950;11.014;2023-02-02T05:50:20;99433.38;;;-11.69;78.66
62864;BME280;48954;59.950;11.014;2023-02-02T05:52:47;99435.80;;;-11.71;78.39
62864;BME280;48954;59.950;11.014;2023-02-02T05:55:13;99445.73;;;-11.73;78.38
62864;BME280;48954;59.950;11.014;2023-02-02T05:57:39;99458.60;;;-11.76;78.42
62864;BME280;48954;59.950;11.014;2023-02-02T06:00:06;99467.02;;;-11.76;78.67
62864;BME280;48954;59.950;11.014;2023-02-02T06:02:32;99472.43;;;-11.78;78.73
62864;BME280;48954;59.950;11.014;2023-02-02T06:05:05;99475.16;;;-11.79;78.80
62864;BME280;48954;59.950;11.014;2023-02-02T06:07:31;99484.08;;;-11.81;78.70
62864;BME280;48954;59.950;11.014;2023-02-02T06:09:58;99485.39;;;-11.83;78.50
62864;BME280;48954;59.950;11.014;2023-02-02T06:12:24;99487.01;;;-11.85;78.67
62864;BME280;48954;59.950;11.014;2023-02-02T06:15:06;99492.95;;;-11.84;78.64
62864;BME280;48954;59.950;11.014;2023-02-02T06:17:34;99491.05;;;-11.85;78.94
62864;BME280;48954;59.950;11.014;2023-02-02T06:20:05;99491.77;;;-11.83;78.79
62864;BME280;48954;59.950;11.014;2023-02-02T06:22:31;99490.76;;;-11.82;78.86
62864;BME280;48954;59.950;11.014;2023-02-02T06:24:57;99493.27;;;-11.78;79.17
62864;BME280;48954;59.950;11.014;2023-02-02T06:27:23;99502.09;;;-11.73;79.39
62864;BME280;48954;59.950;11.014;2023-02-02T06:29:50;99500.56;;;-11.70;79.16
62864;BME280;48954;59.950;11.014;2023-02-02T06:32:17;99507.33;;;-11.69;79.02
62864;BME280;48954;59.950;11.014;2023-02-02T06:34:50;99513.16;;;-11.69;78.90
62864;BME280;48954;59.950;11.014;2023-02-02T06:37:16;99518.69;;;-11.71;78.56
62864;BME280;48954;59.950;11.014;2023-02-02T06:39:42;99523.13;;;-11.73;78.77
62864;BME280;48954;59.950;11.014;2023-02-02T06:42:08;99529.11;;;-11.76;78.65
62864;BME280;48954;59.950;11.014;2023-02-02T06:44:35;99529.14;;;-11.77;78.61
62864;BME280;48954;59.950;11.014;2023-02-02T06:47:00;99532.46;;;-11.79;78.77
62864;BME280;48954;59.950;11.014;2023-02-02T06:49:26;99542.85;;;-11.81;78.56
62864;BME280;48954;59.950;11.014;2023-02-02T06:51:52;99542.98;;;-11.84;78.79
62864;BME280;48954;59.950;11.014;2023-02-02T06:54:18;99550.98;;;-11.86;78.88
62864;BME280;48954;59.950;11.014;2023-02-02T06:56:45;99556.98;;;-11.86;78.93
62864;BME280;48954;59.950;11.014;2023-02-02T06:59:11;99560.16;;;-11.84;78.87
62864;BME280;48954;59.950;11.014;2023-02-02T07:01:39;99564.02;;;-11.83;78.78
62864;BME280;48954;59.950;11.014;2023-02-02T07:04:05;99563.46;;;-11.84;78.76
62864;BME280;48954;59.950;11.014;2023-02-02T07:06:32;99568.98;;;-11.86;78.56
62864;BME280;48954;59.950;11.014;2023-02-02T07:08:59;99572.27;;;-11.89;78.97
62864;BME280;48954;59.950;11.014;2023-02-02T07:11:25;99573.38;;;-11.89;78.98
62864;BME280;48954;59.950;11.014;2023-02-02T07:13:51;99571.30;;;-11.89;78.64
62864;BME280;48954;59.950;11.014;2023-02-02T07:16:18;99571.80;;;-11.92;78.67
62864;BME280;48954;59.950;11.014;2023-02-02T07:18:44;99570.39;;;-11.93;78.74
62864;BME280;48954;59.950;11.014;2023-02-02T07:21:17;99572.11;;;-11.94;78.96
62864;BME280;48954;59.950;11.014;2023-02-02T07:23:47;99577.52;;;-11.93;78.69
62864;BME280;48954;59.950;11.014;2023-02-02T07:26:14;99579.09;;;-11.89;79.21
62864;BME280;48954;59.950;11.014;2023-02-02T07:28:41;99585.84;;;-11.87;79.08
62864;BME280;48954;59.950;11.014;2023-02-02T07:31:16;99587.10;;;-11.85;79.02
62864;BME280;48954;59.950;11.014;2023-02-02T07:33:43;99586.02;;;-11.84;78.84
62864;BME280;48954;59.950;11.014;2023-02-02T07:36:15;99588.64;;;-11.83;78.85
62864;BME280;48954;59.950;11.014;2023-02-02T07:38:42;99595.00;;;-11.83;78.83
62864;BME280;48954;59.950;11.014;2023-02-02T07:41:08;99602.64;;;-11.83;78.95
62864;BME280;48954;59.950;11.014;2023-02-02T07:43:34;99606.80;;;-11.86;78.73
62864;BME280;48954;59.950;11.014;2023-02-02T07:46:01;99612.83;;;-11.89;78.43
62864;BME280;48954;59.950;11.014;2023-02-02T07:48:31;99613.45;;;-11.92;78.50
62864;BME280;48954;59.950;11.014;2023-02-02T07:50:58;99619.81;;;-11.94;78.50
62864;BME280;48954;59.950;11.014;2023-02-02T07:53:25;99623.17;;;-11.95;78.64
62864;BME280;48954;59.950;11.014;2023-02-02T07:55:51;99622.06;;;-11.95;78.82
62864;BME280;48954;59.950;11.014;2023-02-02T07:58:17;99623.91;;;-11.93;78.78
62864;BME280;48954;59.950;11.014;2023-02-02T08:00:42;99627.69;;;-11.91;78.62
62864;BME280;48954;59.950;11.014;2023-02-02T08:03:11;99634.05;;;-11.88;78.78
62864;BME280;48954;59.950;11.014;2023-02-02T08:05:37;99648.46;;;-11.84;79.00
62864;BME280;48954;59.950;11.014;2023-02-02T08:08:03;99650.02;;;-11.77;79.27
62864;BME280;48954;59.950;11.014;2023-02-02T08:10:29;99655.78;;;-11.71;78.99
62864;BME280;48954;59.950;11.014;2023-02-02T08:12:55;99660.94;;;-11.64;79.36
62864;BME280;48954;59.950;11.014;2023-02-02T08:15:21;99661.11;;;-11.60;79.13
62864;BME280;48954;59.950;11.014;2023-02-02T08:17:47;99663.47;;;-11.57;78.70
62864;BME280;48954;59.950;11.014;2023-02-02T08:20:13;99668.00;;;-11.55;78.61
62864;BME280;48954;59.950;11.014;2023-02-02T08:22:39;99675.66;;;-11.54;78.48
62864;BME280;48954;59.950;11.014;2023-02-02T08:25:05;99682.71;;;-11.53;78.81
62864;BME280;48954;59.950;11.014;2023-02-02T08:27:30;99684.06;;;-11.53;78.45
62864;BME280;48954;59.950;11.014;2023-02-02T08:29:56;99689.23;;;-11.50;78.36
62864;BME280;48954;59.950;11.014;2023-02-02T08:32:22;99698.90;;;-11.49;78.52
62864;BME280;48954;59.950;11.014;2023-02-02T08:34:48;99707.95;;;-11.47;78.73
62864;BME280;48954;59.950;11.014;2023-02-02T08:37:14;99706.97;;;-11.42;78.46
62864;BME280;48954;59.950;11.014;2023-02-02T08:39:40;99712.46;;;-11.36;78.88
62864;BME280;48954;59.950;11.014;2023-02-02T08:42:06;99720.58;;;-11.26;79.03
62864;BME280;48954;59.950;11.014;2023-02-02T08:44:31;99724.59;;;-11.14;79.29
62864;BME280;48954;59.950;11.014;2023-02-02T08:46:57;99728.08;;;-10.99;79.40
62864;BME280;48954;59.950;11.014;2023-02-02T08:49:23;99732.46;;;-10.84;79.74
62864;BME280;48954;59.950;11.014;2023-02-02T08:51:48;99728.71;;;-10.70;79.51
62864;BME280;48954;59.950;11.014;2023-02-02T08:54:14;99729.26;;;-10.57;79.70
62864;BME280;48954;59.950;11.014;2023-02-02T08:56:40;99731.13;;;-10.46;79.29
62864;BME280;48954;59.950;11.014;2023-02-02T08:59:06;99733.13;;;-10.33;79.41
62864;BME280;48954;59.950;11.014;2023-02-02T09:01:33;99735.02;;;-10.22;78.92
62864;BME280;48954;59.950;11.014;2023-02-02T09:04:02;99735.52;;;-10.08;79.12
62864;BME280;48954;59.950;11.014;2023-02-02T09:06:36;99740.14;;;-9.88;78.88
62864;BME280;48954;59.950;11.014;2023-02-02T09:09:05;99745.17;;;-9.68;79.34
62864;BME280;48954;59.950;11.014;2023-02-02T09:11:31;99751.39;;;-9.52;79.53
62864;BME280;48954;59.950;11.014;2023-02-02T09:13:58;99753.59;;;-9.36;79.39
62864;BME280;48954;59.950;11.014;2023-02-02T09:16:25;99758.85;;;-9.14;79.11
62864;BME280;48954;59.950;11.014;2023-02-02T09:18:51;99757.30;;;-8.86;78.81
62864;BME280;48954;59.950;11.014;2023-02-02T09:21:18;99757.89;;;-8.59;79.46
62864;BME280;48954;59.950;11.014;2023-02-02T09:23:48;99759.89;;;-8.15;79.26
62864;BME280;48954;59.950;11.014;2023-02-02T09:26:28;99765.52;;;-7.79;79.42
62864;BME280;48954;59.950;11.014;2023-02-02T09:28:59;99771.63;;;-7.58;79.04
62864;BME280;48954;59.950;11.014;2023-02-02T09:31:25;99768.48;;;-7.41;78.69
62864;BME280;48954;59.950;11.014;2023-02-02T09:33:51;99779.86;;;-7.33;78.12
62864;BME280;48954;59.950;11.014;2023-02-02T09:36:19;99782.59;;;-7.19;77.55
62864;BME280;48954;59.950;11.014;2023-02-02T09:38:46;99785.48;;;-6.95;77.31
62864;BME280;48954;59.950;11.014;2023-02-02T09:41:32;99786.49;;;-6.63;77.42
62864;BME280;48954;59.950;11.014;2023-02-02T09:49:58;99788.55;;;-6.07;77.07
62864;BME280;48954;59.950;11.014;2023-02-02T09:52:37;99780.44;;;-5.75;77.37
62864;BME280;48954;59.950;11.014;2023-02-02T09:55:40;99776.86;;;-5.16;76.56
62864;BME280;48954;59.950;11.014;2023-02-02T09:58:25;99774.39;;;-5.16;75.98
62864;BME280;48954;59.950;11.014;2023-02-02T10:01:06;99779.76;;;-5.08;75.83
62864;BME280;48954;59.950;11.014;2023-02-02T10:03:41;99784.17;;;-4.77;75.55
62864;BME280;48954;59.950;11.014;2023-02-02T10:06:45;99782.14;;;-4.41;75.79
62864;BME280;48954;59.950;11.014;2023-02-02T10:09:36;99781.89;;;-4.04;75.51
62864;BME280;48954;59.950;11.014;2023-02-02T10:15:20;99794.70;;;-3.67;74.12
62864;BME280;48954;59.950;11.014;2023-02-02T10:18:02;99790.67;;;-3.62;73.19
62864;BME280;48954;59.950;11.014;2023-02-02T10:20:37;99791.75;;;-3.59;72.92
62864;BME280;48954;59.950;11.014;2023-02-02T10:23:29;99797.89;;;-3.78;72.97
62864;BME280;48954;59.950;11.014;2023-02-02T10:34:25;99792.04;;;-2.96;73.15
62864;BME280;48954;59.950;11.014;2023-02-02T10:39:53;99793.84;;;-2.59;73.04
62864;BME280;48954;59.950;11.014;2023-02-02T10:45:34;99802.17;;;-1.63;73.60
62864;BME280;48954;59.950;11.014;2023-02-02T10:48:00;99802.90;;;-1.04;72.46
62864;BME280;48954;59.950;11.014;2023-02-02T10:50:27;99800.94;;;-0.64;71.45
62864;BME280;48954;59.950;11.014;2023-02-02T10:52:58;99797.63;;;-0.56;70.98
62864;BME280;48954;59.950;11.014;2023-02-02T10:55:52;99793.45;;;-0.45;69.52
62864;BME280;48954;59.950;11.014;2023-02-02T10:58:39;99799.66;;;-0.59;69.33
62864;BME280;48954;59.950;11.014;2023-02-02T11:01:08;99804.48;;;-0.57;70.47
62864;BME280;48954;59.950;11.014;2023-02-02T11:03:35;99808.94;;;-0.31;71.44
62864;BME280;48954;59.950;11.014;2023-02-02T11:06:05;99812.77;;;0.30;70.26
62864;BME280;48954;59.950;11.014;2023-02-02T11:08:34;99816.69;;;1.15;69.15
62864;BME280;48954;59.950;11.014;2023-02-02T11:11:33;99807.67;;;1.79;68.09
62864;BME280;48954;59.950;11.014;2023-02-02T11:16:38;99803.97;;;3.69;66.64
62864;BME280;48954;59.950;11.014;2023-02-02T11:19:22;99804.60;;;4.69;65.13
62864;BME280;48954;59.950;11.014;2023-02-02T11:21:53;99810.05;;;5.35;63.79
62864;BME280;48954;59.950;11.014;2023-02-02T11:24:23;99814.92;;;4.90;64.57
62864;BME280;48954;59.950;11.014;2023-02-02T11:27:14;99814.42;;;4.64;64.65
62864;BME280;48954;59.950;11.014;2023-02-02T11:29:47;99819.13;;;4.63;64.01
62864;BME280;48954;59.950;11.014;2023-02-02T11:35:20;99819.88;;;4.51;63.23
62864;BME280;48954;59.950;11.014;2023-02-02T11:37:56;99818.20;;;4.37;62.83
62864;BME280;48954;59.950;11.014;2023-02-02T11:40:31;99813.73;;;4.26;62.67
62864;BME280;48954;59.950;11.014;2023-02-02T11:43:04;99809.91;;;4.40;61.86
62864;BME280;48954;59.950;11.014;2023-02-02T11:45:40;99809.36;;;4.17;61.23
62864;BME280;48954;59.950;11.014;2023-02-02T11:48:20;99810.80;;;3.58;61.32
62864;BME280;48954;59.950;11.014;2023-02-02T11:50:49;99805.11;;;2.97;61.61
62864;BME280;48954;59.950;11.014;2023-02-02T11:53:26;99808.73;;;2.43;61.32
62864;BME280;48954;59.950;11.014;2023-02-02T11:55:53;99811.83;;;1.74;61.44
62864;BME280;48954;59.950;11.014;2023-02-02T11:58:22;99809.06;;;1.15;61.86
62864;BME280;48954;59.950;11.014;2023-02-02T12:00:57;99810.35;;;0.69;62.22
62864;BME280;48954;59.950;11.014;2023-02-02T12:03:35;99812.95;;;0.16;62.30
62864;BME280;48954;59.950;11.014;2023-02-02T12:06:17;99815.81;;;-0.27;62.49
62864;BME280;48954;59.950;11.014;2023-02-02T12:08:45;99815.27;;;-0.62;62.84
62864;BME280;48954;59.950;11.014;2023-02-02T12:14:25;99818.98;;;-1.28;62.94
62864;BME280;48954;59.950;11.014;2023-02-02T12:24:45;99817.73;;;-2.24;64.30
62864;BME280;48954;59.950;11.014;2023-02-02T12:27:32;99820.69;;;-2.42;64.03
62864;BME280;48954;59.950;11.014;2023-02-02T12:36:12;99819.70;;;-2.84;64.56
62864;BME280;48954;59.950;11.014;2023-02-02T12:38:46;99819.70;;;-2.95;64.52
62864;BME280;48954;59.950;11.014;2023-02-02T12:41:40;99820.79;;;-3.02;64.33
62864;BME280;48954;59.950;11.014;2023-02-02T12:55:15;99831.32;;;-3.35;65.31
62864;BME280;48954;59.950;11.014;2023-02-02T12:57:52;99837.57;;;-3.38;65.42
62864;BME280;48954;59.950;11.014;2023-02-02T13:03:28;99843.52;;;-3.45;65.85
62864;BME280;48954;59.950;11.014;2023-02-02T13:14:11;99843.13;;;-3.50;66.03
62864;BME280;48954;59.950;11.014;2023-02-02T13:16:44;99843.77;;;-3.51;66.03
62864;BME280;48954;59.950;11.014;2023-02-02T13:19:44;99845.35;;;-3.52;66.37
62864;BME280;48954;59.950;11.014;2023-02-02T13:22:18;99848.41;;;-3.52;66.41
62864;BME280;48954;59.950;11.014;2023-02-02T13:25:04;99847.05;;;-3.50;66.06
62864;BME280;48954;59.950;11.014;2023-02-02T13:27:32;99849.86;;;-3.48;66.35
62864;BME280;48954;59.950;11.014;2023-02-02T13:30:29;99853.09;;;-3.46;66.19
62864;BME280;48954;59.950;11.014;2023-02-02T13:33:01;99849.23;;;-3.42;66.35
62864;BME280;48954;59.950;11.014;2023-02-02T13:35:35;99862.54;;;-3.39;66.58
62864;BME280;48954;59.950;11.014;2023-02-02T13:38:20;99866.67;;;-3.40;66.75
62864;BME280;48954;59.950;11.014;2023-02-02T13:40:50;99870.77;;;-3.40;66.89
62864;BME280;48954;59.950;11.014;2023-02-02T13:44:00;99870.59;;;-3.42;66.48
62864;BME280;48954;59.950;11.014;2023-02-02T13:49:17;99873.38;;;-3.43;66.58
62864;BME280;48954;59.950;11.014;2023-02-02T13:52:13;99873.78;;;-3.39;66.47
62864;BME280;48954;59.950;11.014;2023-02-02T13:55:15;99874.48;;;-3.38;66.65
62864;BME280;48954;59.950;11.014;2023-02-02T14:00:47;99877.44;;;-3.39;66.71
62864;BME280;48954;59.950;11.014;2023-02-02T14:03:40;99882.00;;;-3.41;66.93
62864;BME280;48954;59.950;11.014;2023-02-02T14:06:13;99882.58;;;-3.42;66.69
62864;BME280;48954;59.950;11.014;2023-02-02T14:11:39;99886.80;;;-3.51;66.97
62864;BME280;48954;59.950;11.014;2023-02-02T14:14:21;99885.98;;;-3.56;66.64
62864;BME280;48954;59.950;11.014;2023-02-02T14:19:56;99892.49;;;-3.61;67.24
62864;BME280;48954;59.950;11.014;2023-02-02T14:22:47;99890.18;;;-3.62;67.05
62864;BME280;48954;59.950;11.014;2023-02-02T14:27:59;99886.70;;;-3.65;67.39
62864;BME280;48954;59.950;11.014;2023-02-02T14:31:16;99885.17;;;-3.69;67.25
62864;BME280;48954;59.950;11.014;2023-02-02T14:33:44;99881.80;;;-3.75;67.12
62864;BME280;48954;59.950;11.014;2023-02-02T14:36:24;99881.95;;;-3.81;67.22
62864;BME280;48954;59.950;11.014;2023-02-02T14:39:17;99885.39;;;-3.88;66.99
62864;BME280;48954;59.950;11.014;2023-02-02T14:42:18;99891.69;;;-3.97;66.88
62864;BME280;48954;59.950;11.014;2023-02-02T14:45:17;99892.17;;;-4.07;67.04
62864;BME280;48954;59.950;11.014;2023-02-02T14:47:57;99891.64;;;-4.16;67.26
62864;BME280;48954;59.950;11.014;2023-02-02T14:53:25;99911.11;;;-4.28;67.41